createdAt,value
2019-01-21T00:01:28.697Z,69.82
2019-01-21T00:03:55.220Z,70.05
2019-01-21T00:06:21.618Z,70.16
2019-01-21T00:08:48.056Z,70.04
2019-01-21T00:11:14.465Z,70.09
2019-01-21T00:13:40.968Z,70.01
2019-01-21T00:16:07.372Z,70.11
2019-01-21T00:18:33.869Z,70.57
2019-01-21T00:21:00.580Z,70.52
2019-01-21T00:23:26.996Z,70.52
2019-01-21T00:25:53.389Z,70.59
2019-01-21T00:28:20.186Z,70.80
2019-01-21T00:30:46.729Z,70.85
2019-01-21T00:33:13.244Z,70.93
2019-01-21T00:35:39.845Z,70.82
2019-01-21T00:38:06.309Z,71.12
2019-01-21T00:40:32.713Z,71.06
2019-01-21T00:42:59.140Z,71.03
2019-01-21T00:45:25.536Z,70.92
2019-01-21T00:47:52.011Z,70.88
2019-01-21T00:50:18.589Z,71.08
2019-01-21T00:52:45.350Z,70.81
2019-01-21T00:55:12.399Z,71.06
2019-01-21T00:57:38.807Z,71.37
2019-01-21T01:00:11.105Z,71.36
2019-01-21T01:02:37.694Z,71.51
2019-01-21T01:05:06.623Z,71.08
2019-01-21T01:07:33.053Z,71.53
2019-01-21T01:09:59.468Z,71.16
2019-01-21T01:12:25.941Z,70.93
2019-01-21T01:14:52.438Z,71.53
2019-01-21T01:17:18.935Z,70.86
2019-01-21T01:19:45.411Z,71.11
2019-01-21T01:22:11.871Z,71.36
2019-01-21T01:24:38.279Z,71.50
2019-01-21T01:27:04.680Z,71.40
2019-01-21T01:29:31.305Z,71.31
2019-01-21T01:31:57.668Z,71.87
2019-01-21T01:34:24.065Z,71.33
2019-01-21T01:36:50.471Z,71.23
2019-01-21T01:39:16.966Z,71.35
2019-01-21T01:41:43.817Z,71.44
2019-01-21T01:44:10.444Z,71.61
2019-01-21T01:46:36.953Z,71.42
2019-01-21T01:49:03.448Z,71.50
2019-01-21T01:51:29.959Z,71.58
2019-01-21T01:53:56.443Z,71.56
2019-01-21T01:56:22.958Z,71.47
2019-01-21T01:58:49.350Z,71.59
2019-01-21T02:01:15.794Z,71.70
2019-01-21T02:03:42.498Z,71.80
2019-01-21T02:06:09.071Z,71.47
2019-01-21T02:08:35.462Z,71.53
2019-01-21T02:11:01.906Z,71.85
2019-01-21T02:13:28.329Z,72.26
2019-01-21T02:15:54.877Z,72.06
2019-01-21T02:18:21.336Z,71.74
2019-01-21T02:20:47.775Z,71.83
2019-01-21T02:23:15.160Z,71.34
2019-01-21T02:25:45.012Z,71.63
2019-01-21T02:28:16.533Z,71.42
2019-01-21T02:30:48.736Z,71.31
2019-01-21T02:33:21.104Z,71.96
2019-01-21T02:35:53.239Z,71.83
2019-01-21T02:38:25.466Z,72.12
2019-01-21T02:40:57.760Z,72.17
2019-01-21T02:43:31.043Z,71.85
2019-01-21T02:46:03.180Z,72.20
2019-01-21T02:48:35.410Z,72.19
2019-01-21T02:51:07.537Z,72.06
2019-01-21T02:53:39.690Z,72.07
2019-01-21T02:56:11.881Z,71.75
2019-01-21T02:58:44.010Z,71.78
2019-01-21T03:01:16.245Z,72.19
2019-01-21T03:03:48.840Z,72.02
2019-01-21T03:06:21.582Z,72.53
2019-01-21T03:08:53.857Z,72.61
2019-01-21T03:11:26.240Z,72.26
2019-01-21T03:13:58.833Z,72.72
2019-01-21T03:16:31.083Z,72.57
2019-01-21T03:19:03.246Z,72.54
2019-01-21T03:21:35.470Z,72.58
2019-01-21T03:24:07.629Z,72.55
2019-01-21T03:26:39.836Z,72.83
2019-01-21T03:29:12.000Z,72.90
2019-01-21T03:31:45.387Z,73.03
2019-01-21T03:34:17.734Z,72.57
2019-01-21T03:36:49.995Z,73.02
2019-01-21T03:39:23.264Z,72.74
2019-01-21T03:41:55.458Z,73.36
2019-01-21T03:44:30.316Z,72.92
2019-01-21T03:47:02.626Z,73.29
2019-01-21T03:49:34.922Z,73.07
2019-01-21T03:52:07.092Z,73.32
2019-01-21T03:54:33.776Z,72.95
2019-01-21T03:57:06.421Z,73.03
2019-01-21T03:59:38.576Z,72.80
2019-01-21T04:02:10.869Z,73.25
2019-01-21T04:04:43.115Z,72.86
2019-01-21T04:07:15.844Z,72.95
2019-01-21T04:09:48.137Z,72.93
2019-01-21T04:12:20.356Z,73.37
2019-01-21T04:14:52.500Z,73.17
2019-01-21T04:17:25.129Z,73.00
2019-01-21T04:19:57.506Z,72.66
2019-01-21T04:22:29.851Z,72.67
2019-01-21T04:25:02.203Z,72.92
2019-01-21T04:27:34.513Z,73.32
2019-01-21T04:30:06.761Z,73.24
2019-01-21T04:32:39.019Z,72.92
2019-01-21T04:35:11.251Z,73.27
2019-01-21T04:37:43.491Z,72.61
2019-01-21T04:40:15.781Z,72.89
2019-01-21T04:42:47.981Z,73.49
2019-01-21T04:45:20.275Z,73.70
2019-01-21T04:47:52.565Z,73.59
2019-01-21T04:50:24.912Z,73.79
2019-01-21T04:52:57.135Z,73.65
2019-01-21T04:55:29.383Z,73.18
2019-01-21T04:58:01.599Z,72.97
2019-01-21T05:00:34.154Z,73.20
2019-01-21T05:03:06.358Z,73.59
2019-01-21T05:05:38.638Z,73.47
2019-01-21T05:08:10.997Z,73.87
2019-01-21T05:10:45.078Z,73.63
2019-01-21T05:13:17.365Z,73.52
2019-01-21T05:15:49.524Z,73.37
2019-01-21T05:18:21.902Z,73.39
2019-01-21T05:20:54.152Z,73.30
2019-01-21T05:23:26.501Z,73.39
2019-01-21T05:25:58.832Z,74.00
2019-01-21T05:28:31.354Z,73.94
2019-01-21T05:31:03.655Z,74.18
2019-01-21T05:33:35.886Z,74.10
2019-01-21T05:36:08.159Z,74.09
2019-01-21T05:38:40.517Z,73.61
2019-01-21T05:41:12.825Z,73.77
2019-01-21T05:43:45.219Z,73.59
2019-01-21T05:46:17.432Z,73.94
2019-01-21T05:48:49.640Z,73.56
2019-01-21T05:51:21.866Z,73.72
2019-01-21T05:53:53.978Z,73.53
2019-01-21T05:56:26.322Z,72.91
2019-01-21T05:58:58.466Z,73.55
2019-01-21T06:01:30.835Z,73.69
2019-01-21T06:04:03.130Z,73.56
2019-01-21T06:06:35.379Z,73.89
2019-01-21T06:09:07.587Z,73.94
2019-01-21T06:11:39.823Z,73.74
2019-01-21T06:14:12.034Z,74.07
2019-01-21T06:16:44.256Z,74.09
2019-01-21T06:19:16.430Z,74.00
2019-01-21T06:21:48.574Z,74.21
2019-01-21T06:24:20.817Z,73.99
2019-01-21T06:26:52.969Z,74.09
2019-01-21T06:29:25.193Z,73.98
2019-01-21T06:31:57.514Z,74.18
2019-01-21T06:34:29.727Z,74.19
2019-01-21T06:37:01.825Z,73.92
2019-01-21T06:39:34.025Z,74.32
2019-01-21T06:42:06.252Z,74.33
2019-01-21T06:44:38.625Z,74.37
2019-01-21T06:47:10.773Z,74.11
2019-01-21T06:49:43.004Z,74.13
2019-01-21T06:52:15.234Z,74.67
2019-01-21T06:54:47.377Z,74.45
2019-01-21T06:57:19.826Z,74.12
2019-01-21T06:59:51.967Z,74.20
2019-01-21T07:02:24.249Z,74.20
2019-01-21T07:04:56.487Z,73.94
2019-01-21T07:07:28.652Z,74.22
2019-01-21T07:10:01.132Z,74.46
2019-01-21T07:12:33.367Z,74.06
2019-01-21T07:15:05.618Z,73.82
2019-01-21T07:17:38.267Z,74.31
2019-01-21T07:20:10.495Z,74.26
2019-01-21T07:22:42.733Z,74.01
2019-01-21T07:25:14.859Z,74.01
2019-01-21T07:27:47.135Z,73.83
2019-01-21T07:30:19.393Z,74.23
2019-01-21T07:32:51.742Z,74.38
2019-01-21T07:35:24.004Z,74.47
2019-01-21T07:37:56.278Z,74.31
2019-01-21T07:40:28.459Z,74.18
2019-01-21T07:43:00.717Z,73.83
2019-01-21T07:45:32.870Z,74.41
2019-01-21T07:48:05.309Z,73.95
2019-01-21T07:50:37.522Z,73.66
2019-01-21T07:53:09.654Z,73.83
2019-01-21T07:55:41.990Z,73.94
2019-01-21T07:58:14.145Z,73.62
2019-01-21T08:00:46.453Z,74.03
2019-01-21T08:03:18.732Z,74.15
2019-01-21T08:05:50.898Z,74.20
2019-01-21T08:08:23.199Z,73.79
2019-01-21T08:10:55.495Z,73.92
2019-01-21T08:13:27.696Z,74.10
2019-01-21T08:16:00.099Z,74.24
2019-01-21T08:18:32.313Z,74.23
2019-01-21T08:21:04.698Z,74.41
2019-01-21T08:23:37.006Z,74.10
2019-01-21T08:26:09.297Z,73.88
2019-01-21T08:28:41.727Z,73.54
2019-01-21T08:31:13.987Z,73.62
2019-01-21T08:33:46.066Z,73.97
2019-01-21T08:36:18.207Z,73.86
2019-01-21T08:38:50.316Z,73.73
2019-01-21T08:41:22.571Z,73.40
2019-01-21T08:43:54.693Z,73.78
2019-01-21T08:46:26.868Z,73.21
2019-01-21T08:48:58.989Z,73.61
2019-01-21T08:51:31.144Z,73.18
2019-01-21T08:54:03.295Z,73.89
2019-01-21T08:56:36.605Z,73.40
2019-01-21T08:59:09.820Z,73.50
2019-01-21T09:01:41.931Z,73.47
2019-01-21T09:04:14.038Z,73.85
2019-01-21T09:06:46.212Z,73.92
2019-01-21T09:09:18.309Z,74.22
2019-01-21T09:11:50.510Z,73.94
2019-01-21T09:14:22.629Z,73.48
2019-01-21T09:16:54.734Z,73.50
2019-01-21T09:19:26.894Z,73.03
2019-01-21T09:21:59.009Z,73.11
2019-01-21T09:24:31.381Z,73.86
2019-01-21T09:27:03.459Z,73.28
2019-01-21T09:29:35.553Z,73.27
2019-01-21T09:32:07.654Z,72.95
2019-01-21T09:34:39.752Z,73.11
2019-01-21T09:37:11.886Z,72.34
2019-01-21T09:39:44.012Z,72.78
2019-01-21T09:42:16.204Z,73.07
2019-01-21T09:44:48.313Z,72.62
2019-01-21T09:47:14.668Z,72.90
2019-01-21T09:49:43.822Z,73.14
2019-01-21T09:52:10.633Z,73.04
2019-01-21T09:54:37.124Z,72.31
2019-01-21T09:57:03.825Z,72.72
2019-01-21T09:59:30.730Z,72.91
2019-01-21T10:01:57.352Z,72.71
2019-01-21T10:04:29.573Z,73.15
2019-01-21T10:07:01.931Z,72.70
2019-01-21T10:09:34.062Z,71.97
2019-01-21T10:12:06.186Z,71.94
2019-01-21T10:14:38.356Z,72.43
2019-01-21T10:17:10.470Z,72.48
2019-01-21T10:19:42.569Z,72.10
2019-01-21T10:22:14.670Z,72.26
2019-01-21T10:24:46.846Z,71.88
2019-01-21T10:27:19.041Z,72.02
2019-01-21T10:29:51.211Z,71.45
2019-01-21T10:32:23.380Z,71.51
2019-01-21T10:34:55.502Z,71.52
2019-01-21T10:37:27.695Z,71.04
2019-01-21T10:40:00.004Z,71.29
2019-01-21T10:42:32.307Z,71.45
2019-01-21T10:45:05.607Z,71.19
2019-01-21T10:47:39.059Z,71.58
2019-01-21T10:50:11.241Z,71.06
2019-01-21T10:52:44.589Z,70.68
2019-01-21T10:55:16.918Z,69.91
2019-01-21T10:57:49.040Z,70.37
2019-01-21T11:00:21.253Z,70.50
2019-01-21T11:02:53.369Z,71.02
2019-01-21T11:05:25.577Z,70.63
2019-01-21T11:07:57.796Z,70.71
2019-01-21T11:10:29.949Z,70.98
2019-01-21T11:13:02.047Z,71.16
2019-01-21T11:15:34.213Z,70.87
2019-01-21T11:18:06.447Z,70.64
2019-01-21T11:20:38.513Z,71.01
2019-01-21T11:23:10.656Z,71.22
2019-01-21T11:25:42.788Z,70.41
2019-01-21T11:28:14.922Z,70.36
2019-01-21T11:30:47.115Z,70.16
2019-01-21T11:33:19.338Z,69.94
2019-01-21T11:35:51.462Z,70.09
2019-01-21T11:38:23.534Z,69.94
2019-01-21T11:40:55.798Z,69.58
2019-01-21T11:43:29.293Z,69.34
2019-01-21T11:46:02.053Z,69.46
2019-01-21T11:48:34.339Z,69.69
2019-01-21T11:51:06.701Z,69.67
2019-01-21T11:53:38.868Z,69.71
2019-01-21T11:56:11.070Z,69.70
2019-01-21T11:58:43.179Z,70.25
2019-01-21T12:01:15.273Z,70.05
2019-01-21T12:03:47.532Z,69.81
2019-01-21T12:06:17.105Z,69.74
2019-01-21T12:08:49.393Z,70.39
2019-01-21T12:11:21.502Z,70.16
2019-01-21T12:13:53.749Z,69.62
2019-01-21T12:16:25.890Z,69.68
2019-01-21T12:18:58.279Z,69.44
2019-01-21T12:21:30.425Z,70.24
2019-01-21T12:24:02.580Z,69.84
2019-01-21T12:26:36.471Z,69.78
2019-01-21T12:29:08.631Z,69.93
2019-01-21T12:31:40.715Z,70.64
2019-01-21T12:34:12.801Z,69.93
2019-01-21T12:36:44.997Z,70.61
2019-01-21T12:39:17.087Z,71.02
2019-01-21T12:41:49.268Z,70.74
2019-01-21T12:44:21.360Z,70.68
2019-01-21T12:46:53.500Z,70.08
2019-01-21T12:49:25.585Z,70.64
2019-01-21T12:51:57.725Z,71.03
2019-01-21T12:54:29.817Z,71.29
2019-01-21T12:57:01.964Z,71.40
2019-01-21T12:59:34.178Z,71.49
2019-01-21T13:02:06.338Z,71.19
2019-01-21T13:04:38.471Z,71.04
2019-01-21T13:07:10.606Z,71.36
2019-01-21T13:09:42.763Z,71.10
2019-01-21T13:12:15.077Z,70.92
2019-01-21T13:14:47.198Z,71.56
2019-01-21T13:17:19.354Z,71.79
2019-01-21T13:19:51.476Z,71.45
2019-01-21T13:22:23.707Z,72.16
2019-01-21T13:24:55.806Z,72.52
2019-01-21T13:27:27.926Z,72.20
2019-01-21T13:30:00.204Z,72.44
2019-01-21T13:32:32.331Z,72.34
2019-01-21T13:35:04.455Z,73.02
2019-01-21T13:37:36.666Z,72.71
2019-01-21T13:40:08.943Z,72.66
2019-01-21T13:42:42.988Z,72.53
2019-01-21T13:45:16.427Z,72.93
2019-01-21T13:47:48.572Z,73.25
2019-01-21T13:50:20.704Z,73.29
2019-01-21T13:52:52.892Z,73.09
2019-01-21T13:55:25.056Z,73.11
2019-01-21T13:57:57.199Z,73.39
2019-01-21T14:00:29.311Z,72.72
2019-01-21T14:03:01.626Z,73.09
2019-01-21T14:05:33.927Z,73.19
2019-01-21T14:08:06.083Z,72.93
2019-01-21T14:10:38.203Z,72.96
2019-01-21T14:13:10.319Z,73.19
2019-01-21T14:15:42.491Z,72.85
2019-01-21T14:18:14.745Z,72.96
2019-01-21T14:20:46.840Z,72.93
2019-01-21T14:23:25.179Z,73.22
2019-01-21T14:25:53.097Z,72.96
2019-01-21T14:28:25.273Z,72.73
2019-01-21T14:30:57.384Z,72.79
2019-01-21T14:33:29.536Z,72.85
2019-01-21T14:36:01.932Z,73.25
2019-01-21T14:38:34.048Z,73.04
2019-01-21T14:41:06.140Z,72.97
2019-01-21T14:43:39.373Z,73.02
2019-01-21T14:46:11.674Z,73.44
2019-01-21T14:48:44.694Z,72.87
2019-01-21T14:51:16.790Z,73.94
2019-01-21T14:53:50.036Z,73.32
2019-01-21T14:56:22.228Z,73.18
2019-01-21T14:58:54.429Z,73.67
2019-01-21T15:01:26.650Z,73.89
2019-01-21T15:03:58.748Z,73.22
2019-01-21T15:06:31.066Z,73.10
2019-01-21T15:09:03.433Z,73.26
2019-01-21T15:11:36.747Z,73.48
2019-01-21T15:14:08.868Z,73.71
2019-01-21T15:16:40.974Z,73.41
2019-01-21T15:19:13.311Z,73.00
2019-01-21T15:21:45.430Z,73.11
2019-01-21T15:24:17.588Z,73.32
2019-01-21T15:26:51.324Z,73.50
2019-01-21T15:29:23.887Z,73.82
2019-01-21T15:31:56.122Z,73.59
2019-01-21T15:34:28.365Z,73.27
2019-01-21T15:37:00.619Z,73.28
2019-01-21T15:39:32.910Z,73.11
2019-01-21T15:42:05.117Z,72.80
2019-01-21T15:44:37.279Z,72.81
2019-01-21T15:47:09.420Z,72.82
2019-01-21T15:49:41.627Z,73.24
2019-01-21T15:52:13.891Z,73.05
2019-01-21T15:54:46.037Z,73.11
2019-01-21T15:57:19.509Z,73.29
2019-01-21T15:59:51.885Z,72.93
2019-01-21T16:02:24.072Z,72.68
2019-01-21T16:04:56.319Z,72.69
2019-01-21T16:07:28.569Z,72.85
2019-01-21T16:10:00.737Z,72.88
2019-01-21T16:12:32.829Z,72.84
2019-01-21T16:15:05.108Z,72.68
2019-01-21T16:17:37.239Z,72.98
2019-01-21T16:20:09.407Z,72.10
2019-01-21T16:22:41.596Z,71.52
2019-01-21T16:25:13.815Z,70.72
2019-01-21T16:27:45.935Z,71.12
2019-01-21T16:30:18.168Z,70.75
2019-01-21T16:32:50.274Z,71.15
2019-01-21T16:35:22.585Z,70.99
2019-01-21T16:37:55.023Z,71.29
2019-01-21T16:40:27.844Z,71.88
2019-01-21T16:42:54.391Z,71.81
2019-01-21T16:45:20.769Z,71.95
2019-01-21T16:47:47.175Z,71.24
2019-01-21T16:50:13.534Z,71.05
2019-01-21T16:52:40.007Z,71.14
2019-01-21T16:55:07.199Z,71.69
2019-01-21T16:57:33.619Z,71.88
2019-01-21T17:00:00.052Z,71.26
2019-01-21T17:02:26.594Z,71.00
2019-01-21T17:04:53.013Z,71.13
2019-01-21T17:07:19.542Z,71.53
2019-01-21T17:09:45.903Z,71.12
2019-01-21T17:12:12.280Z,71.70
2019-01-21T17:14:38.713Z,71.41
2019-01-21T17:17:05.080Z,71.32
2019-01-21T17:19:31.488Z,70.90
2019-01-21T17:21:57.949Z,71.37
2019-01-21T17:24:24.411Z,71.70
2019-01-21T17:26:51.298Z,71.23
2019-01-21T17:29:17.749Z,70.85
2019-01-21T17:31:44.102Z,70.85
2019-01-21T17:34:10.454Z,70.65
2019-01-21T17:36:37.172Z,70.99
2019-01-21T17:39:06.050Z,70.88
2019-01-21T17:41:33.555Z,70.67
2019-01-21T17:43:59.976Z,71.32
2019-01-21T17:46:26.340Z,70.97
2019-01-21T17:48:57.110Z,71.34
2019-01-21T17:51:24.041Z,71.50
2019-01-21T17:53:51.447Z,71.65
2019-01-21T17:56:18.140Z,70.69
2019-01-21T17:58:44.534Z,70.52
2019-01-21T18:01:10.952Z,70.77
2019-01-21T18:03:37.373Z,70.83
2019-01-21T18:06:04.962Z,70.58
2019-01-21T18:08:31.388Z,70.70
2019-01-21T18:10:57.804Z,70.89
2019-01-21T18:13:24.323Z,70.56
2019-01-21T18:15:50.913Z,71.01
2019-01-21T18:18:17.508Z,70.92
2019-01-21T18:20:44.023Z,70.82
2019-01-21T18:23:10.813Z,70.84
2019-01-21T18:25:37.431Z,70.86
2019-01-21T18:28:04.073Z,70.82
2019-01-21T18:30:30.692Z,70.50
2019-01-21T18:32:57.089Z,70.41
2019-01-21T18:35:23.688Z,70.85
2019-01-21T18:37:50.108Z,70.36
2019-01-21T18:40:19.431Z,70.51
2019-01-21T18:42:46.082Z,71.38
2019-01-21T18:45:18.238Z,70.62
2019-01-21T18:47:45.078Z,70.33
2019-01-21T18:50:11.567Z,69.74
2019-01-21T18:52:38.095Z,69.66
2019-01-21T18:55:07.199Z,68.90
2019-01-21T18:57:34.627Z,69.49
2019-01-21T19:00:08.143Z,69.38
2019-01-21T19:02:34.594Z,69.50
2019-01-21T19:05:01.240Z,69.22
2019-01-21T19:07:27.579Z,69.63
2019-01-21T19:09:53.931Z,69.44
2019-01-21T19:12:20.363Z,69.61
2019-01-21T19:14:46.872Z,69.99
2019-01-21T19:17:13.389Z,69.94
2019-01-21T19:19:41.296Z,69.91
2019-01-21T19:22:07.782Z,70.11
2019-01-21T19:24:34.277Z,69.96
2019-01-21T19:27:02.058Z,69.87
2019-01-21T19:29:28.509Z,69.83
2019-01-21T19:31:54.953Z,69.79
2019-01-21T19:34:21.581Z,69.34
2019-01-21T19:36:47.940Z,69.29
2019-01-21T19:39:14.597Z,69.57
2019-01-21T19:41:41.233Z,69.37
2019-01-21T19:44:08.751Z,69.47
2019-01-21T19:46:35.223Z,69.71
2019-01-21T19:49:01.728Z,69.45
2019-01-21T19:51:28.324Z,69.09
2019-01-21T19:53:54.889Z,69.04
2019-01-21T19:56:21.301Z,69.24
2019-01-21T19:58:47.747Z,69.32
2019-01-21T20:01:14.251Z,69.90
2019-01-21T20:03:40.768Z,69.81
2019-01-21T20:06:07.186Z,69.75
2019-01-21T20:08:33.603Z,69.24
2019-01-21T20:10:59.953Z,69.33
2019-01-21T20:13:26.351Z,69.72
2019-01-21T20:15:52.740Z,69.59
2019-01-21T20:18:19.122Z,69.73
2019-01-21T20:20:45.649Z,69.45
2019-01-21T20:23:12.056Z,69.52
2019-01-21T20:25:38.407Z,69.43
2019-01-21T20:28:04.865Z,69.63
2019-01-21T20:30:31.252Z,69.48
2019-01-21T20:32:57.644Z,69.03
2019-01-21T20:35:24.018Z,69.42
2019-01-21T20:37:50.397Z,69.82
2019-01-21T20:40:22.178Z,69.44
2019-01-21T20:42:48.640Z,69.03
2019-01-21T20:45:15.761Z,68.98
2019-01-21T20:47:42.283Z,69.16
2019-01-21T20:50:14.340Z,69.37
2019-01-21T20:52:40.880Z,69.32
2019-01-21T20:55:09.936Z,69.55
2019-01-21T20:57:37.036Z,69.49
2019-01-21T21:00:09.507Z,69.53
2019-01-21T21:02:36.637Z,69.37
2019-01-21T21:05:04.959Z,69.86
2019-01-21T21:07:32.669Z,69.63
2019-01-21T21:09:59.809Z,69.63
2019-01-21T21:12:26.727Z,70.11
2019-01-21T21:14:53.401Z,70.28
2019-01-21T21:17:20.122Z,69.96
2019-01-21T21:19:47.049Z,69.74
2019-01-21T21:22:14.025Z,70.29
2019-01-21T21:24:41.375Z,69.94
2019-01-21T21:27:08.420Z,69.26
2019-01-21T21:29:35.197Z,69.28
2019-01-21T21:32:04.358Z,69.33
2019-01-21T21:34:33.068Z,69.58
2019-01-21T21:36:59.926Z,69.20
2019-01-21T21:39:26.612Z,68.50
2019-01-21T21:41:53.568Z,68.92
2019-01-21T21:44:21.333Z,69.82
2019-01-21T21:46:49.335Z,70.25
2019-01-21T21:49:17.295Z,70.07
2019-01-21T21:51:44.112Z,69.95
2019-01-21T21:54:11.024Z,69.47
2019-01-21T21:56:37.923Z,69.93
2019-01-21T21:59:04.630Z,70.87
2019-01-21T22:01:31.414Z,70.39
2019-01-21T22:03:58.179Z,70.99
2019-01-21T22:06:25.013Z,70.49
2019-01-21T22:08:53.367Z,70.07
2019-01-21T22:11:20.108Z,70.21
2019-01-21T22:13:46.982Z,70.45
2019-01-21T22:16:14.002Z,69.75
2019-01-21T22:18:41.030Z,70.12
2019-01-21T22:21:07.764Z,69.67
2019-01-21T22:23:34.543Z,69.40
2019-01-21T22:26:01.417Z,69.51
2019-01-21T22:28:28.024Z,69.72
2019-01-21T22:30:55.071Z,69.88
2019-01-21T22:33:21.476Z,70.22
2019-01-21T22:35:47.879Z,70.33
2019-01-21T22:38:14.292Z,70.42
2019-01-21T22:40:40.753Z,70.81
2019-01-21T22:43:07.269Z,70.27
2019-01-21T22:45:33.740Z,69.85
2019-01-21T22:48:00.202Z,69.78
2019-01-21T22:50:26.675Z,69.83
2019-01-21T22:52:53.038Z,70.30
2019-01-21T22:55:19.556Z,70.59
2019-01-21T22:57:46.004Z,70.55
2019-01-21T23:00:18.254Z,70.38
2019-01-21T23:02:45.414Z,70.24
2019-01-21T23:05:11.825Z,70.89
2019-01-21T23:07:38.302Z,71.05
2019-01-21T23:10:06.841Z,70.85
2019-01-21T23:12:33.476Z,70.37
2019-01-21T23:14:59.813Z,70.06
2019-01-21T23:17:26.501Z,69.34
2019-01-21T23:19:53.136Z,69.67
2019-01-21T23:22:19.608Z,69.58
2019-01-21T23:24:45.993Z,69.58
2019-01-21T23:27:12.661Z,69.63
2019-01-21T23:29:39.075Z,69.55
2019-01-21T23:32:05.471Z,69.60
2019-01-21T23:34:32.133Z,69.96
2019-01-21T23:36:58.647Z,69.54
2019-01-21T23:39:25.121Z,69.80
2019-01-21T23:41:51.669Z,69.82
2019-01-21T23:44:18.279Z,70.26
2019-01-21T23:46:44.705Z,70.23
2019-01-21T23:49:11.484Z,70.18
2019-01-21T23:51:38.063Z,70.28
2019-01-21T23:54:04.566Z,70.35
2019-01-21T23:56:32.275Z,70.30
2019-01-21T23:58:58.917Z,70.55
